Time,TemperatureF,DewpointF,PressureIn,WindDirection,WindDirectionDegrees,WindSpeedMPH,WindSpeedGustMPH,Humidity,HourlyPrecipIn,Conditions,Clouds,dailyrainin,SolarRadiationWatts/m^2,SoftwareType,DateUTC
2018-04-25 00:04:00,55.9,51.3,30.07,North,355,0.0,0.0,84,0.00,,,0.00,0.0,meteobridge,2018-04-25 07:04:00,
2018-04-25 00:09:00,56.1,51.4,30.07,North,355,0.0,0.0,84,0.00,,,0.00,0.0,meteobridge,2018-04-25 07:09:00,
2018-04-25 00:14:00,56.1,51.4,30.08,North,355,0.0,0.0,84,0.00,,,0.00,0.0,meteobridge,2018-04-25 07:14:00,
2018-04-25 00:19:00,56.3,51.4,30.08,North,355,0.0,0.0,84,0.00,,,0.00,0.0,meteobridge,2018-04-25 07:19:00,
2018-04-25 00:24:00,56.3,51.4,30.08,North,355,0.0,0.0,84,0.00,,,0.00,0.0,meteobridge,2018-04-25 07:24:00,
2018-04-25 00:29:00,56.3,51.4,30.08,North,355,0.0,0.0,84,0.00,,,0.00,0.0,meteobridge,2018-04-25 07:29:00,
2018-04-25 00:34:00,56.5,51.6,30.08,North,355,0.0,0.0,84,0.00,,,0.00,0.0,meteobridge,2018-04-25 07:34:00,
2018-04-25 00:39:00,56.7,51.6,30.08,North,355,0.0,0.0,83,0.00,,,0.00,0.0,meteobridge,2018-04-25 07:39:00,
2018-04-25 00:44:00,56.7,51.6,30.08,North,355,0.0,0.0,83,0.00,,,0.00,0.0,meteobridge,2018-04-25 07:44:00,
2018-04-25 00:49:00,56.8,51.8,30.08,North,355,0.0,0.0,83,0.00,,,0.00,0.0,meteobridge,2018-04-25 07:49:00,
2018-04-25 00:54:00,56.8,51.8,30.08,North,355,0.0,0.0,83,0.00,,,0.00,0.0,meteobridge,2018-04-25 07:54:00,
2018-04-25 00:59:00,56.8,51.8,30.08,North,355,0.0,0.0,83,0.00,,,0.00,0.0,meteobridge,2018-04-25 07:59:00,
2018-04-25 01:04:00,56.8,51.8,30.08,North,355,0.0,0.0,83,0.00,,,0.00,0.0,meteobridge,2018-04-25 08:04:00,
2018-04-25 01:09:00,56.7,51.6,30.08,North,355,0.0,0.0,83,0.00,,,0.00,0.0,meteobridge,2018-04-25 08:09:00,
2018-04-25 01:14:00,56.7,51.6,30.08,North,355,0.0,0.0,83,0.00,,,0.00,0.0,meteobridge,2018-04-25 08:14:00,
2018-04-25 01:19:00,56.7,51.6,30.08,North,355,0.0,0.0,83,0.00,,,0.00,0.0,meteobridge,2018-04-25 08:19:00,
2018-04-25 01:24:00,56.5,51.1,30.08,North,355,0.0,0.0,82,0.00,,,0.00,0.0,meteobridge,2018-04-25 08:24:00,
2018-04-25 01:29:00,56.5,51.1,30.08,North,355,0.0,0.0,82,0.00,,,0.00,0.0,meteobridge,2018-04-25 08:29:00,
2018-04-25 01:34:00,56.5,51.1,30.08,North,355,0.0,0.0,82,0.00,,,0.00,0.0,meteobridge,2018-04-25 08:34:00,
2018-04-25 01:39:00,56.5,50.7,30.08,North,355,0.0,0.0,81,0.00,,,0.00,0.0,meteobridge,2018-04-25 08:39:00,
2018-04-25 01:44:00,56.5,50.4,30.08,North,355,0.0,0.0,80,0.00,,,0.00,0.0,meteobridge,2018-04-25 08:44:00,
2018-04-25 01:49:00,56.5,50.0,30.08,North,355,0.0,0.0,79,0.00,,,0.00,0.0,meteobridge,2018-04-25 08:49:00,
2018-04-25 01:54:00,56.7,49.8,30.08,North,355,0.0,0.0,78,0.00,,,0.00,0.0,meteobridge,2018-04-25 08:54:00,
2018-04-25 01:59:00,56.7,49.8,30.08,North,355,0.0,0.0,78,0.00,,,0.00,0.0,meteobridge,2018-04-25 08:59:00,
2018-04-25 02:04:00,56.8,49.6,30.08,North,355,0.0,0.0,77,0.00,,,0.00,0.0,meteobridge,2018-04-25 09:04:00,
2018-04-25 02:09:00,57.0,49.5,30.08,North,355,0.0,0.0,76,0.00,,,0.00,0.0,meteobridge,2018-04-25 09:09:00,
2018-04-25 02:14:00,57.2,48.9,30.08,North,355,0.0,0.0,74,0.00,,,0.00,0.0,meteobridge,2018-04-25 09:14:00,
2018-04-25 02:19:00,57.2,48.6,30.07,North,355,0.0,0.0,73,0.00,,,0.00,0.0,meteobridge,2018-04-25 09:19:00,
2018-04-25 02:24:00,57.2,47.8,30.07,North,355,0.0,0.0,71,0.00,,,0.00,0.0,meteobridge,2018-04-25 09:24:00,
2018-04-25 02:29:00,57.2,45.5,30.07,North,355,0.0,0.0,65,0.00,,,0.00,0.0,meteobridge,2018-04-25 09:29:00,
2018-04-25 02:34:00,57.2,43.9,30.07,North,355,0.0,0.0,61,0.00,,,0.00,0.0,meteobridge,2018-04-25 09:34:00,
2018-04-25 02:39:00,57.2,41.7,30.07,North,355,0.0,0.0,56,0.00,,,0.00,0.0,meteobridge,2018-04-25 09:39:00,
2018-04-25 02:44:00,57.2,40.3,30.07,North,355,0.0,0.0,53,0.00,,,0.00,0.0,meteobridge,2018-04-25 09:44:00,
2018-04-25 02:49:00,57.2,39.2,30.06,North,350,0.0,0.0,51,0.00,,,0.00,0.0,meteobridge,2018-04-25 09:49:00,
2018-04-25 02:54:00,57.2,39.2,30.06,North,350,0.0,0.0,51,0.00,,,0.00,0.0,meteobridge,2018-04-25 09:54:00,
2018-04-25 02:59:00,57.4,38.3,30.06,North,350,0.0,2.5,49,0.00,,,0.00,0.0,meteobridge,2018-04-25 09:59:00,
2018-04-25 03:04:00,57.4,37.4,30.06,North,350,0.0,0.0,47,0.00,,,0.00,0.0,meteobridge,2018-04-25 10:04:00,
2018-04-25 03:09:00,57.4,36.7,30.06,North,350,0.0,0.0,46,0.00,,,0.00,0.0,meteobridge,2018-04-25 10:09:00,
2018-04-25 03:14:00,57.4,36.1,30.06,North,350,0.0,0.0,45,0.00,,,0.00,0.0,meteobridge,2018-04-25 10:14:00,
2018-04-25 03:19:00,57.4,36.1,30.06,North,350,0.0,0.0,45,0.00,,,0.00,0.0,meteobridge,2018-04-25 10:19:00,
2018-04-25 03:24:00,57.4,36.1,30.06,West,278,2.5,2.5,45,0.00,,,0.00,0.0,meteobridge,2018-04-25 10:24:00,
2018-04-25 03:29:00,57.4,35.6,30.06,NE,44,2.5,2.5,44,0.00,,,0.00,0.0,meteobridge,2018-04-25 10:29:00,
2018-04-25 03:34:00,57.2,36.0,30.06,ESE,122,0.0,0.0,45,0.00,,,0.00,0.0,meteobridge,2018-04-25 10:34:00,
2018-04-25 03:39:00,57.2,36.0,30.06,SW,234,0.0,0.0,45,0.00,,,0.00,0.0,meteobridge,2018-04-25 10:39:00,
2018-04-25 03:44:00,57.2,36.0,30.06,SW,234,0.0,0.0,45,0.00,,,0.00,0.0,meteobridge,2018-04-25 10:44:00,
2018-04-25 03:49:00,57.2,36.0,30.06,SW,234,0.0,0.0,45,0.00,,,0.00,0.0,meteobridge,2018-04-25 10:49:00,
2018-04-25 03:54:00,57.2,36.0,30.06,NNW,343,0.0,0.0,45,0.00,,,0.00,0.0,meteobridge,2018-04-25 10:54:00,
2018-04-25 03:59:00,57.2,36.0,30.06,NNW,343,0.0,0.0,45,0.00,,,0.00,0.0,meteobridge,2018-04-25 10:59:00,
2018-04-25 04:04:00,57.2,36.0,30.06,NNW,343,0.0,0.0,45,0.00,,,0.00,0.0,meteobridge,2018-04-25 11:04:00,
2018-04-25 04:09:00,57.2,36.7,30.06,NNW,343,0.0,0.0,46,0.00,,,0.00,0.0,meteobridge,2018-04-25 11:09:00,
2018-04-25 04:14:00,57.2,36.7,30.06,NNW,343,0.0,0.0,46,0.00,,,0.00,0.0,meteobridge,2018-04-25 11:14:00,
2018-04-25 04:19:00,57.2,36.7,30.06,NNW,343,0.0,0.0,46,0.00,,,0.00,0.0,meteobridge,2018-04-25 11:19:00,
2018-04-25 04:24:00,57.2,36.7,30.06,NNW,343,0.0,0.0,46,0.00,,,0.00,0.0,meteobridge,2018-04-25 11:24:00,
2018-04-25 04:29:00,57.2,36.7,30.07,NNW,343,0.0,0.0,46,0.00,,,0.00,0.0,meteobridge,2018-04-25 11:29:00,
2018-04-25 04:34:00,57.2,36.7,30.06,NNW,343,0.0,0.0,46,0.00,,,0.00,0.0,meteobridge,2018-04-25 11:34:00,
2018-04-25 04:39:00,57.2,36.7,30.07,NNW,343,0.0,0.0,46,0.00,,,0.00,0.0,meteobridge,2018-04-25 11:39:00,
2018-04-25 04:44:00,57.2,36.7,30.06,NNW,343,0.0,0.0,46,0.00,,,0.00,0.0,meteobridge,2018-04-25 11:44:00,
2018-04-25 04:49:00,57.2,36.7,30.07,NNW,343,0.0,0.0,46,0.00,,,0.00,0.0,meteobridge,2018-04-25 11:49:00,
2018-04-25 04:54:00,57.2,36.7,30.07,NNW,343,0.0,0.0,46,0.00,,,0.00,0.0,meteobridge,2018-04-25 11:54:00,
2018-04-25 04:59:00,57.2,36.7,30.07,NNW,343,0.0,0.0,46,0.00,,,0.00,0.0,meteobridge,2018-04-25 11:59:00,
2018-04-25 05:04:00,57.2,36.7,30.07,NNW,343,0.0,0.0,46,0.00,,,0.00,0.0,meteobridge,2018-04-25 12:04:00,
2018-04-25 05:09:00,57.2,36.7,30.07,NNW,343,0.0,0.0,46,0.00,,,0.00,0.0,meteobridge,2018-04-25 12:09:00,
2018-04-25 05:14:00,57.2,36.7,30.07,North,358,0.0,0.0,46,0.00,,,0.00,0.0,meteobridge,2018-04-25 12:14:00,
2018-04-25 05:19:00,57.2,36.0,30.07,North,358,0.0,0.0,45,0.00,,,0.00,0.0,meteobridge,2018-04-25 12:19:00,
2018-04-25 05:24:00,57.0,36.5,30.07,North,358,0.0,0.0,46,0.00,,,0.00,0.0,meteobridge,2018-04-25 12:24:00,
2018-04-25 05:29:00,57.0,36.0,30.06,North,358,0.0,0.0,45,0.00,,,0.00,0.0,meteobridge,2018-04-25 12:29:00,
2018-04-25 05:34:00,57.0,36.0,30.07,North,358,0.0,0.0,45,0.00,,,0.00,0.0,meteobridge,2018-04-25 12:34:00,
2018-04-25 05:39:00,57.0,36.0,30.07,North,358,0.0,0.0,45,0.00,,,0.00,0.0,meteobridge,2018-04-25 12:39:00,
2018-04-25 05:44:00,57.0,36.0,30.07,South,188,0.0,0.0,45,0.00,,,0.00,0.0,meteobridge,2018-04-25 12:44:00,
2018-04-25 05:49:00,56.8,35.8,30.07,South,188,0.0,0.0,45,0.00,,,0.00,0.0,meteobridge,2018-04-25 12:49:00,
2018-04-25 05:54:00,56.8,35.2,30.07,South,188,0.0,0.0,44,0.00,,,0.00,0.0,meteobridge,2018-04-25 12:54:00,
2018-04-25 05:59:00,57.0,35.2,30.07,South,188,0.0,0.0,44,0.00,,,0.00,0.0,meteobridge,2018-04-25 12:59:00,
2018-04-25 06:04:00,57.0,35.2,30.07,South,188,0.0,0.0,44,0.00,,,0.00,0.0,meteobridge,2018-04-25 13:04:00,
2018-04-25 06:09:00,57.0,35.2,30.07,South,188,0.0,0.0,44,0.00,,,0.00,0.0,meteobridge,2018-04-25 13:09:00,
2018-04-25 06:14:00,57.0,35.2,30.07,South,188,0.0,0.0,44,0.00,,,0.00,0.0,meteobridge,2018-04-25 13:14:00,
2018-04-25 06:19:00,57.0,35.2,30.07,South,188,0.0,0.0,44,0.00,,,0.00,1.0,meteobridge,2018-04-25 13:19:00,
2018-04-25 06:24:00,57.0,35.2,30.07,SW,231,0.0,2.5,44,0.00,,,0.00,3.0,meteobridge,2018-04-25 13:24:00,
2018-04-25 06:29:00,57.2,35.4,30.07,NNW,340,0.0,0.0,44,0.00,,,0.00,5.0,meteobridge,2018-04-25 13:29:00,
2018-04-25 06:34:00,57.2,35.4,30.07,NNW,340,0.0,0.0,44,0.00,,,0.00,6.0,meteobridge,2018-04-25 13:34:00,
2018-04-25 06:39:00,57.2,35.4,30.07,NNW,340,0.0,0.0,44,0.00,,,0.00,9.0,meteobridge,2018-04-25 13:39:00,
2018-04-25 06:44:00,57.2,34.9,30.07,NNW,340,0.0,0.0,43,0.00,,,0.00,11.0,meteobridge,2018-04-25 13:44:00,
2018-04-25 06:49:00,57.2,34.9,30.08,NNE,28,0.0,0.0,43,0.00,,,0.00,14.0,meteobridge,2018-04-25 13:49:00,
2018-04-25 06:54:00,57.2,34.9,30.08,NNE,28,0.0,0.0,43,0.00,,,0.00,16.0,meteobridge,2018-04-25 13:54:00,
2018-04-25 06:59:00,57.2,34.9,30.08,East,84,0.0,0.0,43,0.00,,,0.00,19.0,meteobridge,2018-04-25 13:59:00,
2018-04-25 07:04:00,57.4,35.1,30.08,NE,44,0.0,2.5,43,0.00,,,0.00,24.0,meteobridge,2018-04-25 14:04:00,
2018-04-25 07:09:00,57.4,35.1,30.08,NE,44,0.0,0.0,43,0.00,,,0.00,27.0,meteobridge,2018-04-25 14:09:00,
2018-04-25 07:14:00,57.4,34.5,30.08,ENE,76,0.0,2.5,42,0.00,,,0.00,30.0,meteobridge,2018-04-25 14:14:00,
2018-04-25 07:19:00,57.4,34.5,30.08,North,10,0.0,0.0,42,0.00,,,0.00,33.0,meteobridge,2018-04-25 14:19:00,
2018-04-25 07:24:00,57.6,34.7,30.08,NNW,337,0.0,2.5,42,0.00,,,0.00,37.0,meteobridge,2018-04-25 14:24:00,
2018-04-25 07:29:00,57.6,35.2,30.08,WNW,283,2.5,2.5,43,0.00,,,0.00,36.0,meteobridge,2018-04-25 14:29:00,
2018-04-25 07:34:00,57.6,35.2,30.08,North,1,0.0,0.0,43,0.00,,,0.00,37.0,meteobridge,2018-04-25 14:34:00,
2018-04-25 07:39:00,57.6,35.2,30.09,North,1,0.0,0.0,43,0.00,,,0.00,41.0,meteobridge,2018-04-25 14:39:00,
2018-04-25 07:44:00,57.4,34.5,30.09,North,1,0.0,0.0,42,0.00,,,0.00,47.0,meteobridge,2018-04-25 14:44:00,
2018-04-25 07:49:00,57.6,34.7,30.08,North,1,0.0,0.0,42,0.00,,,0.00,58.0,meteobridge,2018-04-25 14:49:00,
2018-04-25 07:54:00,57.6,34.7,30.08,North,1,0.0,0.0,42,0.00,,,0.00,69.0,meteobridge,2018-04-25 14:54:00,
2018-04-25 07:59:00,57.7,34.2,30.09,North,1,0.0,0.0,41,0.00,,,0.00,75.0,meteobridge,2018-04-25 14:59:00,
2018-04-25 08:04:00,57.9,33.8,30.09,North,1,0.0,0.0,40,0.00,,,0.00,74.0,meteobridge,2018-04-25 15:04:00,
2018-04-25 08:09:00,58.3,34.0,30.08,North,1,0.0,0.0,40,0.00,,,0.00,87.0,meteobridge,2018-04-25 15:09:00,
2018-04-25 08:14:00,58.6,33.8,30.08,North,1,0.0,0.0,39,0.00,,,0.00,104.0,meteobridge,2018-04-25 15:14:00,
2018-04-25 08:19:00,58.8,34.0,30.08,North,1,0.0,0.0,39,0.00,,,0.00,127.0,meteobridge,2018-04-25 15:19:00,
2018-04-25 08:24:00,59.0,32.7,30.07,North,350,2.5,2.5,37,0.00,,,0.00,162.0,meteobridge,2018-04-25 15:24:00,
2018-04-25 08:29:00,59.2,32.9,30.08,North,0,0.0,2.5,37,0.00,,,0.00,134.0,meteobridge,2018-04-25 15:29:00,
2018-04-25 08:34:00,59.4,31.6,30.08,North,0,0.0,0.0,35,0.00,,,0.00,112.0,meteobridge,2018-04-25 15:34:00,
2018-04-25 08:39:00,59.9,31.5,30.08,North,0,0.0,0.0,34,0.00,,,0.00,125.0,meteobridge,2018-04-25 15:39:00,
2018-04-25 08:44:00,60.3,31.8,30.08,North,0,0.0,0.0,34,0.00,,,0.00,156.0,meteobridge,2018-04-25 15:44:00,
2018-04-25 08:49:00,60.8,30.7,30.08,North,0,0.0,0.0,32,0.00,,,0.00,301.0,meteobridge,2018-04-25 15:49:00,
2018-04-25 08:54:00,61.5,31.5,30.09,North,0,0.0,2.5,32,0.00,,,0.00,311.0,meteobridge,2018-04-25 15:54:00,
2018-04-25 08:59:00,62.4,31.5,30.09,North,5,2.5,2.5,31,0.00,,,0.00,324.0,meteobridge,2018-04-25 15:59:00,
2018-04-25 09:04:00,63.1,28.6,30.08,North,5,0.0,0.0,27,0.00,,,0.00,334.0,meteobridge,2018-04-25 16:04:00,
2018-04-25 09:09:00,64.0,29.3,30.09,North,5,0.0,0.0,27,0.00,,,0.00,346.0,meteobridge,2018-04-25 16:09:00,
2018-04-25 09:14:00,65.1,30.4,30.08,ESE,111,0.0,2.5,27,0.00,,,0.00,357.0,meteobridge,2018-04-25 16:14:00,
2018-04-25 09:19:00,66.2,33.1,30.08,North,0,0.0,2.5,29,0.00,,,0.00,357.0,meteobridge,2018-04-25 16:19:00,
2018-04-25 09:24:00,66.7,35.1,30.09,SE,129,0.0,2.5,31,0.00,,,0.00,363.0,meteobridge,2018-04-25 16:24:00,
2018-04-25 09:29:00,67.1,35.4,30.09,ESE,117,0.0,2.5,31,0.00,,,0.00,371.0,meteobridge,2018-04-25 16:29:00,
2018-04-25 09:34:00,67.5,34.9,30.09,North,349,2.5,4.9,30,0.00,,,0.00,360.0,meteobridge,2018-04-25 16:34:00,
2018-04-25 09:39:00,67.3,35.6,30.09,East,80,0.0,4.9,31,0.00,,,0.00,384.0,meteobridge,2018-04-25 16:39:00,
2018-04-25 09:44:00,67.1,35.4,30.09,SE,128,2.5,4.9,31,0.00,,,0.00,393.0,meteobridge,2018-04-25 16:44:00,
2018-04-25 09:49:00,66.7,35.1,30.09,North,0,0.0,7.6,31,0.00,,,0.00,389.0,meteobridge,2018-04-25 16:49:00,
2018-04-25 09:54:00,66.6,35.8,30.09,ESE,117,2.5,2.5,32,0.00,,,0.00,392.0,meteobridge,2018-04-25 16:54:00,
2018-04-25 09:59:00,66.6,35.1,30.09,ENE,74,4.9,4.9,31,0.00,,,0.00,402.0,meteobridge,2018-04-25 16:59:00,
2018-04-25 10:04:00,66.4,34.9,30.10,SE,129,2.5,4.9,31,0.00,,,0.00,402.0,meteobridge,2018-04-25 17:04:00,
2018-04-25 10:09:00,66.2,34.7,29.96,ESE,115,0.0,2.5,31,0.00,,,0.00,390.0,meteobridge,2018-04-25 17:09:00,
2018-04-25 10:14:00,66.2,35.4,30.10,ESE,110,0.0,7.6,32,0.00,,,0.00,417.0,meteobridge,2018-04-25 17:14:00,
2018-04-25 10:19:00,66.2,33.8,29.84,SE,126,0.0,2.5,30,0.00,,,0.00,417.0,meteobridge,2018-04-25 17:19:00,
2018-04-25 10:24:00,66.4,34.9,30.10,ESE,112,2.5,2.5,31,0.00,,,0.00,422.0,meteobridge,2018-04-25 17:24:00,
2018-04-25 10:29:00,66.6,35.1,29.93,SSE,155,2.5,7.6,31,0.00,,,0.00,447.0,meteobridge,2018-04-25 17:29:00,
2018-04-25 10:34:00,66.6,35.1,30.06,NE,43,2.5,2.5,31,0.00,,,0.00,454.0,meteobridge,2018-04-25 17:34:00,
2018-04-25 10:39:00,66.7,34.3,30.04,East,86,0.0,4.9,30,0.00,,,0.00,445.0,meteobridge,2018-04-25 17:39:00,
2018-04-25 10:44:00,66.7,35.1,29.94,SE,129,2.5,4.9,31,0.00,,,0.00,452.0,meteobridge,2018-04-25 17:44:00,
2018-04-25 10:49:00,66.9,35.2,30.11,ESE,116,2.5,4.9,31,0.00,,,0.00,453.0,meteobridge,2018-04-25 17:49:00,
2018-04-25 10:54:00,66.9,36.1,29.99,NNE,12,2.5,4.9,32,0.00,,,0.00,398.0,meteobridge,2018-04-25 17:54:00,
2018-04-25 10:59:00,66.7,36.0,30.10,ESE,109,4.9,7.6,32,0.00,,,0.00,462.0,meteobridge,2018-04-25 17:59:00,
2018-04-25 11:04:00,66.6,36.5,30.13,NNE,12,2.5,7.6,33,0.00,,,0.00,501.0,meteobridge,2018-04-25 18:04:00,
2018-04-25 11:09:00,66.2,34.7,30.27,East,94,0.0,2.5,31,0.00,,,0.00,509.0,meteobridge,2018-04-25 18:09:00,
2018-04-25 11:14:00,66.2,34.7,30.12,NW,318,0.0,4.9,31,0.00,,,0.00,287.0,meteobridge,2018-04-25 18:14:00,
2018-04-25 11:19:00,66.2,34.7,30.16,NE,41,2.5,4.9,31,0.00,,,0.00,235.0,meteobridge,2018-04-25 18:19:00,
2018-04-25 11:24:00,66.0,35.2,30.33,ESE,109,4.9,4.9,32,0.00,,,0.00,503.0,meteobridge,2018-04-25 18:24:00,
2018-04-25 11:29:00,66.0,36.1,30.11,East,93,2.5,4.9,33,0.00,,,0.00,350.0,meteobridge,2018-04-25 18:29:00,
2018-04-25 11:33:00,66.2,34.7,30.20,NNE,15,2.5,4.9,31,0.00,,,0.00,498.0,meteobridge,2018-04-25 18:33:00,
2018-04-25 11:38:00,66.4,34.9,30.30,East,93,4.9,4.9,31,0.00,,,0.00,508.0,meteobridge,2018-04-25 18:38:00,
2018-04-25 11:43:00,66.4,35.6,30.11,ESE,114,2.5,4.9,32,0.00,,,0.00,506.0,meteobridge,2018-04-25 18:43:00,
2018-04-25 11:48:00,66.6,35.1,30.15,ESE,123,2.5,4.9,31,0.00,,,0.00,480.0,meteobridge,2018-04-25 18:48:00,
2018-04-25 11:53:00,66.7,35.1,30.31,North,4,2.5,2.5,31,0.00,,,0.00,505.0,meteobridge,2018-04-25 18:53:00,
2018-04-25 11:58:00,66.9,35.2,30.13,ESE,105,2.5,7.6,31,0.00,,,0.00,505.0,meteobridge,2018-04-25 18:58:00,
2018-04-25 12:03:00,66.7,36.7,30.29,South,190,2.5,4.9,33,0.00,,,0.00,555.0,meteobridge,2018-04-25 19:03:00,
2018-04-25 12:08:00,66.6,35.8,30.30,North,1,2.5,4.9,32,0.00,,,0.00,520.0,meteobridge,2018-04-25 19:08:00,
2018-04-25 12:13:00,66.6,35.1,30.27,ESE,105,0.0,2.5,31,0.00,,,0.00,497.0,meteobridge,2018-04-25 19:13:00,
2018-04-25 12:18:00,66.4,34.9,30.24,NE,39,2.5,7.6,31,0.00,,,0.00,482.0,meteobridge,2018-04-25 19:18:00,
2018-04-25 12:23:00,66.4,34.9,30.10,ESE,107,4.9,4.9,31,0.00,,,0.00,482.0,meteobridge,2018-04-25 19:23:00,
2018-04-25 12:28:00,66.4,34.9,30.10,ESE,111,2.5,4.9,31,0.00,,,0.00,485.0,meteobridge,2018-04-25 19:28:00,
2018-04-25 12:33:00,66.7,35.1,30.10,ESE,113,2.5,2.5,31,0.00,,,0.00,485.0,meteobridge,2018-04-25 19:33:00,
2018-04-25 12:38:00,67.1,32.9,30.11,East,79,2.5,4.9,28,0.00,,,0.00,487.0,meteobridge,2018-04-25 19:38:00,
2018-04-25 12:43:00,67.5,34.2,30.10,South,187,0.0,4.9,29,0.00,,,0.00,485.0,meteobridge,2018-04-25 19:43:00,
2018-04-25 12:48:00,67.6,34.2,30.10,ENE,69,4.9,4.9,29,0.00,,,0.00,488.0,meteobridge,2018-04-25 19:48:00,
2018-04-25 12:53:00,67.8,34.3,30.10,SE,125,2.5,10.1,29,0.00,,,0.00,490.0,meteobridge,2018-04-25 19:53:00,
2018-04-25 12:58:00,67.8,35.2,30.10,NE,44,7.6,7.6,30,0.00,,,0.00,488.0,meteobridge,2018-04-25 19:58:00,
2018-04-25 13:03:00,67.8,35.2,30.10,North,359,4.9,4.9,30,0.00,,,0.00,487.0,meteobridge,2018-04-25 20:03:00,
2018-04-25 13:08:00,67.5,35.8,30.09,East,87,2.5,2.5,31,0.00,,,0.00,487.0,meteobridge,2018-04-25 20:08:00,
2018-04-25 13:13:00,67.5,34.9,30.09,SE,130,2.5,2.5,30,0.00,,,0.00,488.0,meteobridge,2018-04-25 20:13:00,
2018-04-25 13:18:00,67.6,32.5,30.09,North,5,2.5,7.6,27,0.00,,,0.00,491.0,meteobridge,2018-04-25 20:18:00,
2018-04-25 13:23:00,67.8,33.4,30.09,SW,218,4.9,4.9,28,0.00,,,0.00,493.0,meteobridge,2018-04-25 20:23:00,
2018-04-25 13:28:00,67.8,35.2,30.09,North,10,4.9,4.9,30,0.00,,,0.00,480.0,meteobridge,2018-04-25 20:28:00,
2018-04-25 13:33:00,68.0,35.4,30.09,North,7,4.9,4.9,30,0.00,,,0.00,467.0,meteobridge,2018-04-25 20:33:00,
2018-04-25 13:38:00,68.0,35.4,30.08,ESE,119,4.9,-999.0,30,0.00,,,0.00,440.0,meteobridge,2018-04-25 20:38:00,
2018-04-25 13:43:00,68.2,35.6,30.08,West,267,2.5,2.5,30,0.00,,,0.00,489.0,meteobridge,2018-04-25 20:43:00,
2018-04-25 13:48:00,68.2,33.8,30.08,ESE,111,0.0,4.9,28,0.00,,,0.00,487.0,meteobridge,2018-04-25 20:48:00,
2018-04-25 13:53:00,67.8,35.2,30.08,ESE,108,2.5,2.5,30,0.00,,,0.00,350.0,meteobridge,2018-04-25 20:53:00,
2018-04-25 13:58:00,68.2,33.8,30.08,ESE,116,2.5,2.5,28,0.00,,,0.00,184.0,meteobridge,2018-04-25 20:58:00,
2018-04-25 14:03:00,68.4,34.9,30.08,North,4,2.5,2.5,29,0.00,,,0.00,405.0,meteobridge,2018-04-25 21:03:00,
2018-04-25 14:08:00,68.2,35.6,30.08,East,96,2.5,2.5,30,0.00,,,0.00,107.0,meteobridge,2018-04-25 21:08:00,
2018-04-25 14:13:00,68.2,35.6,30.07,ESE,123,4.9,4.9,30,0.00,,,0.00,201.0,meteobridge,2018-04-25 21:13:00,
2018-04-25 14:18:00,68.0,35.4,30.07,NNW,329,4.9,4.9,30,0.00,,,0.00,187.0,meteobridge,2018-04-25 21:18:00,
2018-04-25 14:23:00,68.0,36.3,30.07,ESE,111,2.5,4.9,31,0.00,,,0.00,163.0,meteobridge,2018-04-25 21:23:00,
2018-04-25 14:28:00,67.6,35.1,30.07,ENE,75,2.5,2.5,30,0.00,,,0.00,245.0,meteobridge,2018-04-25 21:28:00,
2018-04-25 14:33:00,67.5,35.8,30.07,North,358,2.5,7.6,31,0.00,,,0.00,116.0,meteobridge,2018-04-25 21:33:00,
2018-04-25 14:38:00,66.9,36.1,30.07,ENE,72,0.0,4.9,32,0.00,,,0.00,167.0,meteobridge,2018-04-25 21:38:00,
2018-04-25 14:43:00,66.6,35.8,30.06,ENE,71,4.9,4.9,32,0.00,,,0.00,370.0,meteobridge,2018-04-25 21:43:00,
2018-04-25 14:48:00,66.4,35.6,30.06,North,359,2.5,2.5,32,0.00,,,0.00,451.0,meteobridge,2018-04-25 21:48:00,
2018-04-25 14:53:00,66.4,34.0,30.06,SSE,168,4.9,4.9,30,0.00,,,0.00,458.0,meteobridge,2018-04-25 21:53:00,
2018-04-25 14:58:00,66.2,34.7,30.06,ESE,119,2.5,4.9,31,0.00,,,0.00,350.0,meteobridge,2018-04-25 21:58:00,
2018-04-25 15:03:00,66.0,36.1,30.06,NE,35,2.5,10.1,33,0.00,,,0.00,390.0,meteobridge,2018-04-25 22:03:00,
2018-04-25 15:08:00,66.2,36.3,30.06,ESE,116,4.9,4.9,33,0.00,,,0.00,415.0,meteobridge,2018-04-25 22:08:00,
2018-04-25 15:13:00,66.4,34.9,30.06,NNE,16,2.5,2.5,31,0.00,,,0.00,444.0,meteobridge,2018-04-25 22:13:00,
2018-04-25 15:18:00,66.4,36.3,30.05,ENE,78,2.5,4.9,33,0.00,,,0.00,431.0,meteobridge,2018-04-25 22:18:00,
2018-04-25 15:23:00,66.0,36.1,30.05,ESE,105,2.5,4.9,33,0.00,,,0.00,430.0,meteobridge,2018-04-25 22:23:00,
2018-04-25 15:28:00,65.7,35.8,30.05,ESE,114,2.5,4.9,33,0.00,,,0.00,418.0,meteobridge,2018-04-25 22:28:00,
2018-04-25 15:33:00,65.7,35.8,30.05,North,9,2.5,7.6,33,0.00,,,0.00,326.0,meteobridge,2018-04-25 22:33:00,
2018-04-25 15:38:00,65.5,35.6,30.05,East,98,2.5,2.5,33,0.00,,,0.00,205.0,meteobridge,2018-04-25 22:38:00,
2018-04-25 15:43:00,65.5,34.9,30.05,East,99,4.9,4.9,32,0.00,,,0.00,298.0,meteobridge,2018-04-25 22:43:00,
2018-04-25 15:48:00,65.3,36.1,30.05,North,349,0.0,4.9,34,0.00,,,0.00,229.0,meteobridge,2018-04-25 22:48:00,
2018-04-25 15:53:00,65.3,36.1,30.04,ENE,77,0.0,4.9,34,0.00,,,0.00,81.0,meteobridge,2018-04-25 22:53:00,
2018-04-25 15:58:00,65.1,36.1,30.04,ENE,70,2.5,2.5,34,0.00,,,0.00,59.0,meteobridge,2018-04-25 22:58:00,
2018-04-25 16:03:00,64.8,36.5,30.04,ESE,122,2.5,7.6,35,0.00,,,0.00,55.0,meteobridge,2018-04-25 23:03:00,
2018-04-25 16:08:00,64.8,35.8,30.04,ESE,103,2.5,2.5,34,0.00,,,0.00,55.0,meteobridge,2018-04-25 23:08:00,
2018-04-25 16:13:00,64.8,35.1,30.04,SE,125,4.9,-999.0,33,0.00,,,0.00,54.0,meteobridge,2018-04-25 23:13:00,
2018-04-25 16:18:00,64.2,36.7,30.04,North,11,0.0,4.9,36,0.00,,,0.00,51.0,meteobridge,2018-04-25 23:18:00,
2018-04-25 16:23:00,63.7,36.1,30.04,North,8,4.9,4.9,36,0.00,,,0.00,47.0,meteobridge,2018-04-25 23:23:00,
2018-04-25 16:28:00,63.5,35.4,30.03,SE,125,0.0,2.5,35,0.00,,,0.00,45.0,meteobridge,2018-04-25 23:28:00,
2018-04-25 16:33:00,63.3,35.2,30.03,East,100,2.5,2.5,35,0.00,,,0.00,45.0,meteobridge,2018-04-25 23:33:00,
2018-04-25 16:38:00,63.1,33.6,30.03,NNW,346,0.0,2.5,33,0.00,,,0.00,47.0,meteobridge,2018-04-25 23:38:00,
2018-04-25 16:43:00,63.1,35.1,30.04,North,356,7.6,7.6,35,0.00,,,0.00,48.0,meteobridge,2018-04-25 23:43:00,
2018-04-25 16:48:00,63.1,35.8,30.03,ESE,105,2.5,2.5,36,0.00,,,0.00,46.0,meteobridge,2018-04-25 23:48:00,
2018-04-25 16:53:00,63.1,35.8,30.04,North,6,2.5,4.9,36,0.00,,,0.00,46.0,meteobridge,2018-04-25 23:53:00,
2018-04-25 16:58:00,63.1,36.5,30.04,NE,44,4.9,4.9,37,0.00,,,0.00,44.0,meteobridge,2018-04-25 23:58:00,
2018-04-25 17:03:00,63.0,36.3,30.04,East,88,2.5,2.5,37,0.00,,,0.00,46.0,meteobridge,2018-04-26 00:03:00,
2018-04-25 17:08:00,62.8,36.9,30.04,East,89,0.0,2.5,38,0.00,,,0.00,52.0,meteobridge,2018-04-26 00:08:00,
2018-04-25 17:13:00,62.4,36.5,30.04,North,8,0.0,0.0,38,0.00,,,0.00,94.0,meteobridge,2018-04-26 00:13:00,
2018-04-25 17:18:00,62.2,37.0,30.04,ESE,112,0.0,2.5,39,0.00,,,0.00,61.0,meteobridge,2018-04-26 00:18:00,
2018-04-25 17:23:00,61.9,36.7,30.04,North,0,2.5,4.9,39,0.00,,,0.00,57.0,meteobridge,2018-04-26 00:23:00,
2018-04-25 17:28:00,61.5,37.0,30.04,ENE,72,2.5,2.5,40,0.00,,,0.00,42.0,meteobridge,2018-04-26 00:28:00,
2018-04-25 17:33:00,61.3,36.1,30.04,North,358,0.0,2.5,39,0.00,,,0.00,38.0,meteobridge,2018-04-26 00:33:00,
2018-04-25 17:38:00,61.0,36.5,30.04,ESE,104,4.9,4.9,40,0.00,,,0.00,36.0,meteobridge,2018-04-26 00:38:00,
2018-04-25 17:43:00,60.8,36.3,30.04,East,82,0.0,2.5,40,0.00,,,0.00,37.0,meteobridge,2018-04-26 00:43:00,
2018-04-25 17:48:00,60.8,36.3,30.04,North,8,2.5,2.5,40,0.00,,,0.00,40.0,meteobridge,2018-04-26 00:48:00,